sensor_id;sensor_type;location;lat;lon;timestamp;pressure;altitude;pressure_sealevel;temperature;humidity
17525;BME280;40431;52.198;9.902;2023-04-06T00:01:42;101130.06;;;2.06;83.33
17525;BME280;40431;52.198;9.902;2023-04-06T00:04:10;101129.22;;;2.03;83.52
17525;BME280;40431;52.198;9.902;2023-04-06T00:06:37;101127.47;;;2.00;84.51
17525;BME280;40431;52.198;9.902;2023-04-06T00:09:03;101129.28;;;1.99;84.32
17525;BME280;40431;52.198;9.902;2023-04-06T00:11:30;101128.31;;;2.02;85.56
17525;BME280;40431;52.198;9.902;2023-04-06T00:13:56;101120.28;;;2.02;85.76
17525;BME280;40431;52.198;9.902;2023-04-06T00:16:23;101129.16;;;2.06;87.00
17525;BME280;40431;52.198;9.902;2023-04-06T00:18:49;101122.06;;;2.03;88.76
17525;BME280;40431;52.198;9.902;2023-04-06T00:21:17;101127.47;;;2.00;86.60
17525;BME280;40431;52.198;9.902;2023-04-06T00:23:44;101116.88;;;1.94;88.08
17525;BME280;40431;52.198;9.902;2023-04-06T00:26:10;101113.34;;;1.92;87.39
17525;BME280;40431;52.198;9.902;2023-04-06T00:28:37;101125.78;;;1.93;88.22
17525;BME280;40431;52.198;9.902;2023-04-06T00:31:03;101108.00;;;1.92;87.89
17525;BME280;40431;52.198;9.902;2023-04-06T00:33:30;101110.72;;;1.90;87.51
17525;BME280;40431;52.198;9.902;2023-04-06T00:35:56;101109.88;;;1.87;88.48
17525;BME280;40431;52.198;9.902;2023-04-06T00:38:24;101113.53;;;1.79;87.36
17525;BME280;40431;52.198;9.902;2023-04-06T00:40:51;101106.44;;;1.78;86.79
17525;BME280;40431;52.198;9.902;2023-04-06T00:43:17;101101.19;;;1.72;84.38
17525;BME280;40431;52.198;9.902;2023-04-06T00:45:44;101108.44;;;1.64;84.45
17525;BME280;40431;52.198;9.902;2023-04-06T00:48:10;101111.13;;;1.61;85.96
17525;BME280;40431;52.198;9.902;2023-04-06T00:50:37;101098.88;;;1.47;84.90
17525;BME280;40431;52.198;9.902;2023-04-06T00:53:03;101100.97;;;1.25;85.47
17525;BME280;40431;52.198;9.902;2023-04-06T00:55:31;101103.56;;;1.30;89.00
17525;BME280;40431;52.198;9.902;2023-04-06T00:57:59;101108.91;;;1.30;88.81
17525;BME280;40431;52.198;9.902;2023-04-06T01:00:25;101105.28;;;1.34;90.00
17525;BME280;40431;52.198;9.902;2023-04-06T01:02:52;101106.16;;;1.36;89.24
17525;BME280;40431;52.198;9.902;2023-04-06T01:05:19;101103.56;;;1.33;89.28
17525;BME280;40431;52.198;9.902;2023-04-06T01:07:45;101102.69;;;1.31;88.15
17525;BME280;40431;52.198;9.902;2023-04-06T01:10:22;101095.63;;;1.27;87.91
17525;BME280;40431;52.198;9.902;2023-04-06T01:12:50;101093.88;;;1.24;89.43
17525;BME280;40431;52.198;9.902;2023-04-06T01:15:17;101092.06;;;1.25;90.71
17525;BME280;40431;52.198;9.902;2023-04-06T01:17:43;101085.91;;;1.20;91.10
17525;BME280;40431;52.198;9.902;2023-04-06T01:20:10;101093.00;;;1.24;92.22
17525;BME280;40431;52.198;9.902;2023-04-06T01:22:37;101083.28;;;1.16;91.15
17525;BME280;40431;52.198;9.902;2023-04-06T01:25:05;101083.34;;;1.10;90.07
17525;BME280;40431;52.198;9.902;2023-04-06T01:27:31;101081.56;;;1.12;90.11
17525;BME280;40431;52.198;9.902;2023-04-06T01:29:58;101083.34;;;1.10;89.15
17525;BME280;40431;52.198;9.902;2023-04-06T01:32:24;101080.59;;;1.16;93.36
17525;BME280;40431;52.198;9.902;2023-04-06T01:34:51;101086.81;;;1.19;95.23
17525;BME280;40431;52.198;9.902;2023-04-06T01:37:17;101085.00;;;1.21;95.99
17525;BME280;40431;52.198;9.902;2023-04-06T01:39:45;101084.09;;;1.22;94.26
17525;BME280;40431;52.198;9.902;2023-04-06T01:42:12;101084.97;;;1.24;95.42
17525;BME280;40431;52.198;9.902;2023-04-06T01:44:38;101074.38;;;1.17;93.99
17525;BME280;40431;52.198;9.902;2023-04-06T01:47:04;101080.59;;;1.16;92.53
17525;BME280;40431;52.198;9.902;2023-04-06T01:49:31;101078.00;;;1.13;92.07
17525;BME280;40431;52.198;9.902;2023-04-06T01:51:57;101081.63;;;1.06;90.61
17525;BME280;40431;52.198;9.902;2023-04-06T01:54:24;101077.34;;;0.96;89.67
17525;BME280;40431;52.198;9.902;2023-04-06T01:56:51;101080.84;;;0.98;91.90
17525;BME280;40431;52.198;9.902;2023-04-06T01:59:18;101076.28;;;1.06;93.95
17525;BME280;40431;52.198;9.902;2023-04-06T02:01:44;101081.59;;;1.09;93.70
17525;BME280;40431;52.198;9.902;2023-04-06T02:04:11;101079.81;;;1.10;91.55
17525;BME280;40431;52.198;9.902;2023-04-06T02:06:38;101072.72;;;1.07;93.46
17525;BME280;40431;52.198;9.902;2023-04-06T02:09:05;101080.72;;;1.07;92.05
17525;BME280;40431;52.198;9.902;2023-04-06T02:11:31;101078.97;;;1.06;92.50
17525;BME280;40431;52.198;9.902;2023-04-06T02:13:59;101074.50;;;1.08;93.01
17525;BME280;40431;52.198;9.902;2023-04-06T02:16:26;101075.38;;;1.07;92.89
17525;BME280;40431;52.198;9.902;2023-04-06T02:18:53;101068.31;;;1.03;93.53
17525;BME280;40431;52.198;9.902;2023-04-06T02:21:19;101077.22;;;1.04;94.08
17525;BME280;40431;52.198;9.902;2023-04-06T02:23:45;101087.91;;;1.02;93.94
17525;BME280;40431;52.198;9.902;2023-04-06T02:26:12;101081.69;;;1.03;93.51
17525;BME280;40431;52.198;9.902;2023-04-06T02:28:38;101079.03;;;1.02;93.55
17525;BME280;40431;52.198;9.902;2023-04-06T02:31:06;101075.47;;;1.01;92.75
17525;BME280;40431;52.198;9.902;2023-04-06T02:33:32;101072.78;;;1.04;93.95
17525;BME280;40431;52.198;9.902;2023-04-06T02:35:59;101076.31;;;1.05;94.79
17525;BME280;40431;52.198;9.902;2023-04-06T02:38:25;101067.47;;;0.99;93.65
17525;BME280;40431;52.198;9.902;2023-04-06T02:40:52;101067.50;;;0.98;95.49
17525;BME280;40431;52.198;9.902;2023-04-06T02:43:18;101070.22;;;0.95;96.62
17525;BME280;40431;52.198;9.902;2023-04-06T02:45:45;101061.38;;;0.90;96.07
17525;BME280;40431;52.198;9.902;2023-04-06T02:48:13;101063.16;;;0.91;96.21
17525;BME280;40431;52.198;9.902;2023-04-06T02:50:40;101062.25;;;0.92;96.63
17525;BME280;40431;52.198;9.902;2023-04-06T02:53:06;101063.19;;;0.88;95.03
17525;BME280;40431;52.198;9.902;2023-04-06T02:55:33;101055.19;;;0.86;95.96
17525;BME280;40431;52.198;9.902;2023-04-06T02:57:59;101063.22;;;0.85;95.71
17525;BME280;40431;52.198;9.902;2023-04-06T03:00:26;101050.78;;;0.83;95.39
17525;BME280;40431;52.198;9.902;2023-04-06T03:02:52;101056.94;;;0.89;97.42
17525;BME280;40431;52.198;9.902;2023-04-06T03:05:20;101056.94;;;0.89;98.04
17525;BME280;40431;52.198;9.902;2023-04-06T03:07:46;101057.88;;;0.85;97.10
17525;BME280;40431;52.198;9.902;2023-04-06T03:10:13;101057.97;;;0.80;95.68
17525;BME280;40431;52.198;9.902;2023-04-06T03:12:39;101051.75;;;0.76;95.70
17525;BME280;40431;52.198;9.902;2023-04-06T03:15:07;101056.22;;;0.74;98.13
17525;BME280;40431;52.198;9.902;2023-04-06T03:17:34;101053.50;;;0.79;100.00
17525;BME280;40431;52.198;9.902;2023-04-06T03:20:01;101050.88;;;0.76;100.00
17525;BME280;40431;52.198;9.902;2023-04-06T03:22:29;101051.78;;;0.75;100.00
17525;BME280;40431;52.198;9.902;2023-04-06T03:24:55;101053.69;;;0.63;99.01
17525;BME280;40431;52.198;9.902;2023-04-06T03:27:22;101051.94;;;0.61;97.96
17525;BME280;40431;52.198;9.902;2023-04-06T03:29:48;101063.59;;;0.54;96.98
17525;BME280;40431;52.198;9.902;2023-04-06T03:32:14;101055.63;;;0.52;98.68
17525;BME280;40431;52.198;9.902;2023-04-06T03:34:41;101057.56;;;0.36;98.45
17525;BME280;40431;52.198;9.902;2023-04-06T03:37:07;101058.50;;;0.32;98.62
17525;BME280;40431;52.198;9.902;2023-04-06T03:39:35;101044.34;;;0.24;98.96
17525;BME280;40431;52.198;9.902;2023-04-06T03:42:02;101051.47;;;0.25;98.83
17525;BME280;40431;52.198;9.902;2023-04-06T03:44:28;101051.44;;;0.29;99.78
17525;BME280;40431;52.198;9.902;2023-04-06T03:46:55;101055.00;;;0.25;100.00
17525;BME280;40431;52.198;9.902;2023-04-06T03:49:21;101054.22;;;0.15;99.72
17525;BME280;40431;52.198;9.902;2023-04-06T03:51:47;101048.97;;;0.08;100.00
17525;BME280;40431;52.198;9.902;2023-04-06T03:54:14;101052.66;;;-0.07;100.00
17525;BME280;40431;52.198;9.902;2023-04-06T03:56:42;101056.31;;;-0.19;100.00
17525;BME280;40431;52.198;9.902;2023-04-06T03:59:08;101058.16;;;-0.27;100.00
17525;BME280;40431;52.198;9.902;2023-04-06T04:01:35;101058.13;;;-0.21;100.00
17525;BME280;40431;52.198;9.902;2023-04-06T04:04:01;101050.13;;;-0.20;100.00
17525;BME280;40431;52.198;9.902;2023-04-06T04:06:28;101060.78;;;-0.23;100.00
17525;BME280;40431;52.198;9.902;2023-04-06T04:08:55;101056.47;;;-0.38;100.00
17525;BME280;40431;52.198;9.902;2023-04-06T04:11:21;101060.88;;;-0.34;100.00
17525;BME280;40431;52.198;9.902;2023-04-06T04:13:49;101059.03;;;-0.24;100.00
17525;BME280;40431;52.198;9.902;2023-04-06T04:16:15;101066.03;;;-0.13;100.00
17525;BME280;40431;52.198;9.902;2023-04-06T04:18:42;101067.75;;;-0.06;100.00
17525;BME280;40431;52.198;9.902;2023-04-06T04:21:10;101072.13;;;0.04;100.00
17525;BME280;40431;52.198;9.902;2023-04-06T04:23:36;101077.47;;;0.04;100.00
17525;BME280;40431;52.198;9.902;2023-04-06T04:26:03;101075.59;;;0.09;100.00
17525;BME280;40431;52.198;9.902;2023-04-06T04:28:30;101076.50;;;0.10;100.00
17525;BME280;40431;52.198;9.902;2023-04-06T04:30:58;101070.28;;;0.11;100.00
17525;BME280;40431;52.198;9.902;2023-04-06T04:33:24;101066.78;;;0.06;100.00
17525;BME280;40431;52.198;9.902;2023-04-06T04:35:51;101071.19;;;0.08;100.00
17525;BME280;40431;52.198;9.902;2023-04-06T04:38:17;101067.63;;;0.11;100.00
17525;BME280;40431;52.198;9.902;2023-04-06T04:40:44;101062.41;;;-0.03;100.00
17525;BME280;40431;52.198;9.902;2023-04-06T04:43:11;101072.09;;;0.03;100.00
17525;BME280;40431;52.198;9.902;2023-04-06T04:45:37;101071.22;;;0.07;100.00
17525;BME280;40431;52.198;9.902;2023-04-06T04:48:05;101071.16;;;0.11;100.00
17525;BME280;40431;52.198;9.902;2023-04-06T04:50:33;101072.94;;;0.08;100.00
17525;BME280;40431;52.198;9.902;2023-04-06T04:52:59;101079.22;;;0.07;100.00
17525;BME280;40431;52.198;9.902;2023-04-06T04:55:26;101064.00;;;0.16;100.00
17525;BME280;40431;52.198;9.902;2023-04-06T04:57:52;101077.28;;;0.20;100.00
17525;BME280;40431;52.198;9.902;2023-04-06T05:00:19;101080.78;;;0.26;100.00
17525;BME280;40431;52.198;9.902;2023-04-06T05:02:46;101075.44;;;0.26;100.00
17525;BME280;40431;52.198;9.902;2023-04-06T05:05:14;101074.66;;;0.16;100.00
17525;BME280;40431;52.198;9.902;2023-04-06T05:07:40;101073.81;;;0.11;100.00
17525;BME280;40431;52.198;9.902;2023-04-06T05:10:07;101067.59;;;0.12;100.00
17525;BME280;40431;52.198;9.902;2023-04-06T05:12:34;101073.78;;;0.14;100.00
17525;BME280;40431;52.198;9.902;2023-04-06T05:15:00;101062.28;;;0.09;100.00
17525;BME280;40431;52.198;9.902;2023-04-06T05:17:27;101067.69;;;0.03;100.00
17525;BME280;40431;52.198;9.902;2023-04-06T05:19:54;101064.13;;;0.04;100.00
17525;BME280;40431;52.198;9.902;2023-04-06T05:22:22;101062.28;;;0.09;100.00
17525;BME280;40431;52.198;9.902;2023-04-06T05:24:48;101071.16;;;0.11;100.00
17525;BME280;40431;52.198;9.902;2023-04-06T05:27:15;101071.25;;;0.02;100.00
17525;BME280;40431;52.198;9.902;2023-04-06T05:29:41;101059.59;;;0.09;100.00
17525;BME280;40431;52.198;9.902;2023-04-06T05:32:08;101081.84;;;0.10;100.00
17525;BME280;40431;52.198;9.902;2023-04-06T05:34:35;101072.00;;;0.16;100.00
17525;BME280;40431;52.198;9.902;2023-04-06T05:37:02;101069.28;;;0.21;100.00
17525;BME280;40431;52.198;9.902;2023-04-06T05:39:30;101062.19;;;0.17;100.00
17525;BME280;40431;52.198;9.902;2023-04-06T05:41:57;101071.94;;;0.24;100.00
17525;BME280;40431;52.198;9.902;2023-04-06T05:44:23;101064.88;;;0.15;100.00
17525;BME280;40431;52.198;9.902;2023-04-06T05:46:49;101071.91;;;0.26;100.00
17525;BME280;40431;52.198;9.902;2023-04-06T05:49:16;101072.66;;;0.40;100.00
17525;BME280;40431;52.198;9.902;2023-04-06T05:51:42;101068.13;;;0.47;100.00
17525;BME280;40431;52.198;9.902;2023-04-06T05:54:09;101063.63;;;0.50;99.04
17525;BME280;40431;52.198;9.902;2023-04-06T05:56:36;101063.03;;;1.00;100.00
17525;BME280;40431;52.198;9.902;2023-04-06T05:59:03;101063.84;;;1.07;100.00
17525;BME280;40431;52.198;9.902;2023-04-06T06:01:30;101061.13;;;1.10;100.00
17525;BME280;40431;52.198;9.902;2023-04-06T06:03:56;101065.44;;;1.20;98.79
17525;BME280;40431;52.198;9.902;2023-04-06T06:06:22;101056.41;;;1.27;94.21
17525;BME280;40431;52.198;9.902;2023-04-06T06:08:49;101054.53;;;1.34;90.77
17525;BME280;40431;52.198;9.902;2023-04-06T06:11:15;101057.06;;;1.43;88.16
17525;BME280;40431;52.198;9.902;2023-04-06T06:13:43;101045.34;;;1.52;86.21
17525;BME280;40431;52.198;9.902;2023-04-06T06:16:10;101043.41;;;1.62;85.06
17525;BME280;40431;52.198;9.902;2023-04-06T06:18:36;101042.34;;;1.72;83.95
17525;BME280;40431;52.198;9.902;2023-04-06T06:21:03;101048.47;;;1.79;83.96
17525;BME280;40431;52.198;9.902;2023-04-06T06:23:29;101044.75;;;1.89;83.02
17525;BME280;40431;52.198;9.902;2023-04-06T06:25:55;101043.16;;;2.29;95.19
17525;BME280;40431;52.198;9.902;2023-04-06T06:28:23;101044.59;;;2.45;96.92
17525;BME280;40431;52.198;9.902;2023-04-06T06:30:51;101049.81;;;2.53;90.48
17525;BME280;40431;52.198;9.902;2023-04-06T06:33:18;101043.44;;;2.59;84.81
17525;BME280;40431;52.198;9.902;2023-04-06T06:35:45;101041.50;;;2.67;81.84
17525;BME280;40431;52.198;9.902;2023-04-06T06:38:11;101047.53;;;2.78;80.09
17525;BME280;40431;52.198;9.902;2023-04-06T06:40:38;101040.25;;;2.85;79.55
17525;BME280;40431;52.198;9.902;2023-04-06T06:43:04;101039.19;;;2.92;79.17
17525;BME280;40431;52.198;9.902;2023-04-06T06:45:31;101041.66;;;3.01;78.89
17525;BME280;40431;52.198;9.902;2023-04-06T06:47:58;101037.78;;;3.15;78.60
17525;BME280;40431;52.198;9.902;2023-04-06T06:50:25;101035.84;;;3.22;77.76
17525;BME280;40431;52.198;9.902;2023-04-06T06:52:51;101040.09;;;3.32;76.80
17525;BME280;40431;52.198;9.902;2023-04-06T06:55:18;101041.53;;;3.47;76.33
17525;BME280;40431;52.198;9.902;2023-04-06T06:57:45;101034.22;;;3.54;76.41
17525;BME280;40431;52.198;9.902;2023-04-06T07:00:13;101031.25;;;3.66;75.04
17525;BME280;40431;52.198;9.902;2023-04-06T07:02:40;101030.94;;;3.78;75.20
17525;BME280;40431;52.198;9.902;2023-04-06T07:05:08;101032.38;;;3.92;74.12
17525;BME280;40431;52.198;9.902;2023-04-06T07:07:34;101033.00;;;4.03;73.49
17525;BME280;40431;52.198;9.902;2023-04-06T07:10:01;101029.97;;;4.15;73.49
17525;BME280;40431;52.198;9.902;2023-04-06T07:12:27;101027.91;;;4.25;71.32
17525;BME280;40431;52.198;9.902;2023-04-06T07:14:54;101020.47;;;4.37;69.58
17525;BME280;40431;52.198;9.902;2023-04-06T07:17:21;101023.69;;;4.49;70.79
17525;BME280;40431;52.198;9.902;2023-04-06T07:19:47;101012.41;;;4.68;68.88
17525;BME280;40431;52.198;9.902;2023-04-06T07:22:16;101018.44;;;4.76;68.75
17525;BME280;40431;52.198;9.902;2023-04-06T07:24:42;101019.72;;;4.93;67.84
17525;BME280;40431;52.198;9.902;2023-04-06T07:27:09;101014.97;;;5.03;66.72
17525;BME280;40431;52.198;9.902;2023-04-06T07:29:35;101019.88;;;5.18;65.74
17525;BME280;40431;52.198;9.902;2023-04-06T07:32:02;101009.56;;;5.32;64.70
17525;BME280;40431;52.198;9.902;2023-04-06T07:34:28;101009.06;;;5.48;63.13
17525;BME280;40431;52.198;9.902;2023-04-06T07:36:56;101005.19;;;5.57;61.67
17525;BME280;40431;52.198;9.902;2023-04-06T07:39:27;101011.84;;;5.72;60.68
17525;BME280;40431;52.198;9.902;2023-04-06T07:41:56;101001.81;;;5.77;60.50
17525;BME280;40431;52.198;9.902;2023-04-06T07:44:30;101007.66;;;5.90;60.75
17525;BME280;40431;52.198;9.902;2023-04-06T07:46:58;101002.72;;;6.04;60.40
17525;BME280;40431;52.198;9.902;2023-04-06T07:49:25;101007.66;;;6.16;60.70
17525;BME280;40431;52.198;9.902;2023-04-06T07:51:51;101003.72;;;6.27;59.45
17525;BME280;40431;52.198;9.902;2023-04-06T07:54:18;100997.94;;;6.38;60.54
17525;BME280;40431;52.198;9.902;2023-04-06T07:56:46;101004.69;;;6.49;59.62
17525;BME280;40431;52.198;9.902;2023-04-06T07:59:12;100990.03;;;6.57;58.64
17525;BME280;40431;52.198;9.902;2023-04-06T08:01:39;100993.34;;;6.65;58.02
17525;BME280;40431;52.198;9.902;2023-04-06T08:04:05;100988.63;;;6.72;57.95
17525;BME280;40431;52.198;9.902;2023-04-06T08:06:32;100985.84;;;6.73;57.26
17525;BME280;40431;52.198;9.902;2023-04-06T08:09:00;100999.75;;;6.86;56.71
17525;BME280;40431;52.198;9.902;2023-04-06T08:11:26;100991.31;;;6.95;56.89
17525;BME280;40431;52.198;9.902;2023-04-06T08:13:55;100991.03;;;7.01;55.63
17525;BME280;40431;52.198;9.902;2023-04-06T08:16:22;100995.31;;;7.07;56.53
17525;BME280;40431;52.198;9.902;2023-04-06T08:18:48;100984.16;;;7.16;57.78
17525;BME280;40431;52.198;9.902;2023-04-06T08:21:15;100980.16;;;7.27;55.97
17525;BME280;40431;52.198;9.902;2023-04-06T08:23:47;100981.63;;;7.35;56.26
17525;BME280;40431;52.198;9.902;2023-04-06T08:26:15;100978.66;;;7.42;56.45
17525;BME280;40431;52.198;9.902;2023-04-06T08:28:42;100979.97;;;7.53;54.19
17525;BME280;40431;52.198;9.902;2023-04-06T08:31:09;100980.81;;;7.76;54.42
17525;BME280;40431;52.198;9.902;2023-04-06T08:33:36;100978.63;;;7.86;56.17
17525;BME280;40431;52.198;9.902;2023-04-06T08:36:08;100978.94;;;7.99;55.41
17525;BME280;40431;52.198;9.902;2023-04-06T08:38:35;100977.53;;;8.11;56.66
17525;BME280;40431;52.198;9.902;2023-04-06T08:41:07;100979.16;;;8.15;55.48
17525;BME280;40431;52.198;9.902;2023-04-06T08:43:35;100974.97;;;8.28;54.75
17525;BME280;40431;52.198;9.902;2023-04-06T08:46:05;100972.06;;;8.33;51.78
17525;BME280;40431;52.198;9.902;2023-04-06T08:48:34;100960.72;;;8.45;52.61
17525;BME280;40431;52.198;9.902;2023-04-06T08:51:02;100971.84;;;8.58;51.59
17525;BME280;40431;52.198;9.902;2023-04-06T08:53:29;100961.47;;;8.68;52.42
17525;BME280;40431;52.198;9.902;2023-04-06T08:55:58;100964.72;;;8.76;51.33
17525;BME280;40431;52.198;9.902;2023-04-06T08:58:25;100960.50;;;8.90;51.32
17525;BME280;40431;52.198;9.902;2023-04-06T09:00:54;100959.06;;;9.00;50.04
17525;BME280;40431;52.198;9.902;2023-04-06T09:03:21;100970.28;;;9.11;50.09
17525;BME280;40431;52.198;9.902;2023-04-06T09:05:53;100955.47;;;9.18;51.24
17525;BME280;40431;52.198;9.902;2023-04-06T09:08:20;100957.69;;;9.29;50.25
17525;BME280;40431;52.198;9.902;2023-04-06T09:10:47;100954.50;;;9.39;50.35
17525;BME280;40431;52.198;9.902;2023-04-06T09:13:14;100957.47;;;9.51;50.19
17525;BME280;40431;52.198;9.902;2023-04-06T09:15:40;100956.16;;;9.60;50.11
17525;BME280;40431;52.198;9.902;2023-04-06T09:18:07;100954.00;;;9.67;49.31
17525;BME280;40431;52.198;9.902;2023-04-06T09:20:34;100955.50;;;9.73;48.69
17525;BME280;40431;52.198;9.902;2023-04-06T09:23:02;100948.13;;;9.76;49.53
17525;BME280;40431;52.198;9.902;2023-04-06T09:25:28;100955.03;;;9.82;47.69
17525;BME280;40431;52.198;9.902;2023-04-06T09:28:00;100955.50;;;9.90;48.44
17525;BME280;40431;52.198;9.902;2023-04-06T09:30:27;100947.16;;;9.95;48.97
17525;BME280;40431;52.198;9.902;2023-04-06T09:32:55;100949.53;;;10.01;48.90
17525;BME280;40431;52.198;9.902;2023-04-06T09:35:23;100942.59;;;10.13;48.12
17525;BME280;40431;52.198;9.902;2023-04-06T09:37:52;100942.09;;;10.22;46.47
17525;BME280;40431;52.198;9.902;2023-04-06T09:40:20;100941.97;;;10.25;46.38
17525;BME280;40431;52.198;9.902;2023-04-06T09:42:48;100934.28;;;10.33;45.82
17525;BME280;40431;52.198;9.902;2023-04-06T09:45:15;100938.03;;;10.48;46.70
17525;BME280;40431;52.198;9.902;2023-04-06T09:47:44;100928.75;;;10.52;45.85
17525;BME280;40431;52.198;9.902;2023-04-06T09:50:11;100927.81;;;10.53;44.70
17525;BME280;40431;52.198;9.902;2023-04-06T09:52:41;100933.13;;;10.55;43.21
17525;BME280;40431;52.198;9.902;2023-04-06T09:55:09;100923.78;;;10.61;44.10
17525;BME280;40431;52.198;9.902;2023-04-06T09:57:45;100931.25;;;10.73;43.55
17525;BME280;40431;52.198;9.902;2023-04-06T10:00:17;100923.22;;;10.88;45.19
17525;BME280;40431;52.198;9.902;2023-04-06T10:02:50;100918.38;;;10.93;43.08
17525;BME280;40431;52.198;9.902;2023-04-06T10:05:22;100926.81;;;11.04;42.79
17525;BME280;40431;52.198;9.902;2023-04-06T10:07:50;100920.94;;;10.96;41.90
17525;BME280;40431;52.198;9.902;2023-04-06T10:10:19;100907.28;;;10.97;42.89
17525;BME280;40431;52.198;9.902;2023-04-06T10:12:48;100916.91;;;11.03;43.56
17525;BME280;40431;52.198;9.902;2023-04-06T10:15:17;100908.13;;;11.14;44.79
17525;BME280;40431;52.198;9.902;2023-04-06T10:17:44;100919.97;;;11.29;44.14
17525;BME280;40431;52.198;9.902;2023-04-06T10:20:16;100905.69;;;11.25;42.63
17525;BME280;40431;52.198;9.902;2023-04-06T10:22:53;100915.31;;;11.31;43.36
17525;BME280;40431;52.198;9.902;2023-04-06T10:25:32;100913.00;;;11.39;41.37
17525;BME280;40431;52.198;9.902;2023-04-06T10:28:01;100912.84;;;11.42;40.21
17525;BME280;40431;52.198;9.902;2023-04-06T10:30:28;100907.97;;;11.33;40.42
17525;BME280;40431;52.198;9.902;2023-04-06T10:32:54;100899.03;;;11.31;40.50
17525;BME280;40431;52.198;9.902;2023-04-06T10:35:21;100903.06;;;11.24;40.23
17525;BME280;40431;52.198;9.902;2023-04-06T10:37:50;100908.03;;;11.31;40.94
17525;BME280;40431;52.198;9.902;2023-04-06T10:40:22;100904.78;;;11.41;42.01
17525;BME280;40431;52.198;9.902;2023-04-06T10:42:50;100894.63;;;11.44;42.10
17525;BME280;40431;52.198;9.902;2023-04-06T10:45:23;100908.53;;;11.54;41.97
17525;BME280;40431;52.198;9.902;2023-04-06T10:47:53;100901.16;;;11.56;41.83
17525;BME280;40431;52.198;9.902;2023-04-06T10:50:20;100892.16;;;11.56;42.02
17525;BME280;40431;52.198;9.902;2023-04-06T10:52:47;100892.16;;;11.56;41.53
17525;BME280;40431;52.198;9.902;2023-04-06T10:55:14;100893.72;;;11.60;41.71
17525;BME280;40431;52.198;9.902;2023-04-06T10:57:41;100894.56;;;11.60;42.21
17525;BME280;40431;52.198;9.902;2023-04-06T11:00:08;100896.63;;;11.71;42.15
17525;BME280;40431;52.198;9.902;2023-04-06T11:02:37;100894.72;;;11.73;42.31
17525;BME280;40431;52.198;9.902;2023-04-06T11:05:04;100894.81;;;11.72;41.62
17525;BME280;40431;52.198;9.902;2023-04-06T11:07:31;100882.28;;;11.69;42.39
17525;BME280;40431;52.198;9.902;2023-04-06T11:09:58;100885.09;;;11.67;42.08
17525;BME280;40431;52.198;9.902;2023-04-06T11:12:25;100888.50;;;11.71;43.33
17525;BME280;40431;52.198;9.902;2023-04-06T11:14:53;100883.38;;;11.81;43.46
17525;BME280;40431;52.198;9.902;2023-04-06T11:17:25;100879.41;;;11.86;41.67
17525;BME280;40431;52.198;9.902;2023-04-06T11:19:53;100874.69;;;11.90;42.34
17525;BME280;40431;52.198;9.902;2023-04-06T11:22:20;100868.91;;;11.80;41.83
17525;BME280;40431;52.198;9.902;2023-04-06T11:24:46;100874.19;;;11.83;42.10
17525;BME280;40431;52.198;9.902;2023-04-06T11:27:14;100868.75;;;11.83;41.69
17525;BME280;40431;52.198;9.902;2023-04-06T11:29:41;100873.19;;;11.84;42.69
17525;BME280;40431;52.198;9.902;2023-04-06T11:32:08;100872.06;;;11.89;41.59
17525;BME280;40431;52.198;9.902;2023-04-06T11:34:36;100865.28;;;11.96;41.58
17525;BME280;40431;52.198;9.902;2023-04-06T11:37:07;100859.56;;;12.00;41.30
17525;BME280;40431;52.198;9.902;2023-04-06T11:39:38;100863.28;;;11.99;42.22
17525;BME280;40431;52.198;9.902;2023-04-06T11:42:05;100863.19;;;12.15;42.03
17525;BME280;40431;52.198;9.902;2023-04-06T11:44:32;100862.88;;;12.20;41.54
17525;BME280;40431;52.198;9.902;2023-04-06T11:47:00;100869.59;;;12.29;42.20
17525;BME280;40431;52.198;9.902;2023-04-06T11:49:27;100860.38;;;12.31;41.41
17525;BME280;40431;52.198;9.902;2023-04-06T11:51:54;100861.03;;;12.35;40.90
17525;BME280;40431;52.198;9.902;2023-04-06T11:54:31;100850.06;;;12.36;41.14
17525;BME280;40431;52.198;9.902;2023-04-06T11:56:58;100842.56;;;12.40;41.89
17525;BME280;40431;52.198;9.902;2023-04-06T11:59:25;100853.94;;;12.47;41.22
17525;BME280;40431;52.198;9.902;2023-04-06T12:01:55;100849.56;;;12.44;41.35
17525;BME280;40431;52.198;9.902;2023-04-06T12:04:22;100847.06;;;12.41;40.25
17525;BME280;40431;52.198;9.902;2023-04-06T12:06:48;100847.25;;;12.38;40.74
17525;BME280;40431;52.198;9.902;2023-04-06T12:09:16;100838.03;;;12.41;40.33
17525;BME280;40431;52.198;9.902;2023-04-06T12:11:44;100831.22;;;12.48;41.38
17525;BME280;40431;52.198;9.902;2023-04-06T12:14:10;100838.50;;;12.62;41.16
17525;BME280;40431;52.198;9.902;2023-04-06T12:16:37;100845.25;;;12.69;41.17
17525;BME280;40431;52.198;9.902;2023-04-06T12:19:04;100827.00;;;12.71;40.61
17525;BME280;40431;52.198;9.902;2023-04-06T12:21:30;100832.03;;;12.77;41.05
17525;BME280;40431;52.198;9.902;2023-04-06T12:23:57;100832.03;;;12.77;41.49
17525;BME280;40431;52.198;9.902;2023-04-06T12:26:23;100830.72;;;12.83;41.20
17525;BME280;40431;52.198;9.902;2023-04-06T12:28:52;100826.66;;;12.90;41.89
17525;BME280;40431;52.198;9.902;2023-04-06T12:31:19;100828.44;;;13.04;41.94
17525;BME280;40431;52.198;9.902;2023-04-06T12:33:47;100828.81;;;13.12;40.52
17525;BME280;40431;52.198;9.902;2023-04-06T12:36:15;100814.19;;;13.00;40.82
17525;BME280;40431;52.198;9.902;2023-04-06T12:38:44;100817.97;;;12.98;41.21
17525;BME280;40431;52.198;9.902;2023-04-06T12:41:11;100810.38;;;13.03;41.41
17525;BME280;40431;52.198;9.902;2023-04-06T12:43:38;100817.81;;;13.14;41.90
17525;BME280;40431;52.198;9.902;2023-04-06T12:46:06;100824.69;;;13.19;41.09
17525;BME280;40431;52.198;9.902;2023-04-06T12:48:33;100820.03;;;13.22;40.82
17525;BME280;40431;52.198;9.902;2023-04-06T12:51:01;100805.84;;;13.16;40.27
17525;BME280;40431;52.198;9.902;2023-04-06T12:53:27;100810.75;;;13.24;41.24
17525;BME280;40431;52.198;9.902;2023-04-06T12:55:55;100798.03;;;13.25;42.31